^^
Meteo Knjazevac Station Historical Data
Daily Summary for October 01, 2022 Units:  Metric    English   Both
Daily Weekly Monthly Yearly Custom
  High: Low: Average:
Temperature: 21.2 °C 10.6 °C 14.2 °C
Dew Point: 18.5 °C 10.4 °C 13.6 °C
Humidity: 99% 78.1% 96%
Wind Speed: 13.5km/h 0.6km/h 5.1km/h
Wind Gust: 16.1km/h - -
Wind- - WSW
Pressure: 1021.2 hPa 1019.9 hPa -
Precipitation: 0.25 mm    
Historical Graphs
 
 
Tabular Data for October 01, 2022
Time Temperature Dew Point Pressure Wind Wind Speed Wind Gust Humidity Rainfall Rate (Hourly) solar Conditions
00:04 13.6 °C 13.2 °C 1019.9 hPa NW 3.5 km/h 4.8 km/h 98% 0 mm 0 W/m2
00:09 13.6 °C 13.2 °C 1019.9 hPa WNW 3.4 km/h 4.8 km/h 98% 0 mm 0 W/m2
00:14 13.5 °C 13.2 °C 1020.2 hPa WNW 2.1 km/h 4.8 km/h 98% 0 mm 0 W/m2
00:19 13.4 °C 13.1 °C 1020.2 hPa NW 2.9 km/h 3.2 km/h 98% 0 mm 0 W/m2
00:24 13.4 °C 13.1 °C 1020.2 hPa NW 2.4 km/h 3.2 km/h 98% 0 mm 0 W/m2
00:29 13.3 °C 13 °C 1020.2 hPa NW 2.6 km/h 3.2 km/h 98% 0 mm 0 W/m2
00:34 13.2 °C 12.9 °C 1020.2 hPa NW 1.8 km/h 3.2 km/h 98% 0 mm 0 W/m2
00:39 13.2 °C 12.8 °C 1020.2 hPa NW 2.7 km/h 3.2 km/h 98% 0 mm 0 W/m2
00:44 12.9 °C 12.7 °C 1020.2 hPa NW 2.4 km/h 3.2 km/h 98% 0 mm 0 W/m2
00:49 12.8 °C 12.7 °C 1020.2 hPa West 3.1 km/h 3.2 km/h 98.9% 0 mm 0 W/m2
00:54 12.8 °C 12.7 °C 1020.2 hPa WSW 3.4 km/h 3.2 km/h 99% 0 mm 0 W/m2
00:59 12.7 °C 12.6 °C 1020.2 hPa West 3.4 km/h 4.8 km/h 99% 0 mm 0 W/m2
01:04 12.7 °C 12.5 °C 1020.2 hPa WNW 2.4 km/h 4.8 km/h 99% 0 mm 0 W/m2
01:09 12.6 °C 12.4 °C 1019.9 hPa NW 3.7 km/h 3.2 km/h 99% 0 mm 0 W/m2
01:14 12.6 °C 12.4 °C 1019.9 hPa WNW 4 km/h 3.5 km/h 99% 0 mm 0 W/m2
01:19 12.5 °C 12.3 °C 1019.9 hPa WNW 5.6 km/h 4.8 km/h 99% 0 mm 0 W/m2
01:24 12.5 °C 12.3 °C 1019.9 hPa WNW 4 km/h 6.4 km/h 99% 0 mm 0 W/m2
01:29 12.5 °C 12.3 °C 1020.2 hPa NW 3.5 km/h 3.2 km/h 99% 0 mm 0 W/m2
01:34 12.5 °C 12.3 °C 1020.2 hPa NW 3.5 km/h 3.2 km/h 99% 0 mm 0 W/m2
01:39 12.4 °C 12.3 °C 1020.2 hPa NW 2.4 km/h 3.2 km/h 99% 0 mm 0 W/m2
01:44 12.3 °C 12.2 °C 1020.2 hPa NW 2.6 km/h 3.2 km/h 99% 0 mm 0 W/m2
01:49 12.3 °C 12.1 °C 1020.2 hPa WNW 1.6 km/h 3.2 km/h 99% 0 mm 0 W/m2
01:54 12.2 °C 12 °C 1020.2 hPa West 0.6 km/h 3.2 km/h 99% 0 mm 0 W/m2
01:59 12.1 °C 11.9 °C 1020.2 hPa NNW 2.7 km/h 1.8 km/h 99% 0 mm 0 W/m2
02:04 11.9 °C 11.8 °C 1020.2 hPa NW 3.5 km/h 3.2 km/h 99% 0 mm 0 W/m2
02:09 11.8 °C 11.7 °C 1020.2 hPa West 5.3 km/h 5 km/h 99% 0 mm 0 W/m2
02:14 11.7 °C 11.6 °C 1020.2 hPa West 4.3 km/h 8 km/h 99% 0 mm 0 W/m2
02:19 11.7 °C 11.5 °C 1020.2 hPa West 3.9 km/h 6.4 km/h 99% 0 mm 0 W/m2
02:24 11.6 °C 11.4 °C 1020.2 hPa WSW 3.7 km/h 4.8 km/h 99% 0 mm 0 W/m2
02:29 11.5 °C 11.3 °C 1020.2 hPa West 5.5 km/h 4.8 km/h 99% 0 mm 0 W/m2
02:34 11.4 °C 11.2 °C 1019.9 hPa WNW 7.1 km/h 8 km/h 99% 0 mm 0 W/m2
02:39 11.4 °C 11.2 °C 1020.2 hPa West 6 km/h 8 km/h 99% 0 mm 0 W/m2
02:44 11.4 °C 11.3 °C 1019.9 hPa WNW 5 km/h 6.4 km/h 99% 0 mm 0 W/m2
02:49 11.5 °C 11.3 °C 1019.9 hPa WNW 4.7 km/h 4.8 km/h 99% 0 mm 0 W/m2
02:54 11.5 °C 11.3 °C 1019.9 hPa West 5.5 km/h 4.8 km/h 99% 0 mm 0 W/m2
02:59 11.5 °C 11.3 °C 1019.9 hPa West 4.5 km/h 4.8 km/h 99% 0 mm 0 W/m2
03:04 11.4 °C 11.3 °C 1019.9 hPa West 2.7 km/h 4.8 km/h 99% 0 mm 0 W/m2
03:09 11.4 °C 11.2 °C 1019.9 hPa WNW 2.6 km/h 3.2 km/h 99% 0 mm 0 W/m2
03:14 11.3 °C 11.2 °C 1019.9 hPa NW 2.7 km/h 3.2 km/h 99% 0 mm 0 W/m2
03:19 11.3 °C 11.1 °C 1019.9 hPa NW 2.7 km/h 3.2 km/h 99% 0 mm 0 W/m2
03:24 11.2 °C 11.1 °C 1019.9 hPa WNW 2.7 km/h 3.2 km/h 99% 0 mm 0 W/m2
03:29 11.2 °C 11 °C 1019.9 hPa NW 5.1 km/h 4.8 km/h 99% 0 mm 0 W/m2
03:34 11.2 °C 11 °C 1019.9 hPa WNW 5 km/h 6.4 km/h 99% 0 mm 0 W/m2
03:39 11.2 °C 11 °C 1019.9 hPa WNW 4 km/h 4.8 km/h 99% 0 mm 0 W/m2
03:44 11.2 °C 11 °C 1019.9 hPa WNW 4 km/h 4.8 km/h 99% 0 mm 0 W/m2
03:49 11.1 °C 10.9 °C 1019.9 hPa West 2.3 km/h 4.8 km/h 99% 0 mm 0 W/m2
03:54 11 °C 10.9 °C 1019.9 hPa West 3.5 km/h 4.8 km/h 99% 0 mm 0 W/m2
03:59 10.9 °C 10.8 °C 1019.9 hPa West 2.9 km/h 4.8 km/h 99% 0 mm 0 W/m2
04:04 10.8 °C 10.7 °C 1019.9 hPa West 3.4 km/h 3.2 km/h 99% 0 mm 0 W/m2
04:09 10.8 °C 10.7 °C 1020.2 hPa WSW 4.7 km/h 4 km/h 99% 0 mm 0 W/m2
04:14 10.7 °C 10.6 °C 1020.2 hPa West 3.7 km/h 6.4 km/h 99% 0 mm 0 W/m2
04:19 10.7 °C 10.5 °C 1019.9 hPa West 4.2 km/h 4.7 km/h 99% 0 mm 0 W/m2
04:24 10.6 °C 10.4 °C 1019.9 hPa West 4.8 km/h 6.4 km/h 99% 0 mm 0 W/m2
04:29 10.6 °C 10.4 °C 1019.9 hPa West 6.3 km/h 5.5 km/h 99% 0 mm 0 W/m2
04:34 10.7 °C 10.5 °C 1020.2 hPa West 5.8 km/h 8 km/h 99% 0 mm 0 W/m2
04:39 10.7 °C 10.6 °C 1020.2 hPa West 6.8 km/h 8 km/h 99% 0 mm 0 W/m2
04:44 10.7 °C 10.6 °C 1020.2 hPa West 5.5 km/h 8 km/h 99% 0 mm 0 W/m2
04:49 10.6 °C 10.4 °C 1020.5 hPa West 5 km/h 4.8 km/h 99% 0 mm 0 W/m2
04:54 10.6 °C 10.4 °C 1020.5 hPa West 5.3 km/h 6.4 km/h 99% 0 mm 0 W/m2
04:59 10.6 °C 10.4 °C 1020.2 hPa WNW 4.5 km/h 6.4 km/h 99% 0 mm 0 W/m2
05:04 10.7 °C 10.6 °C 1020.2 hPa WNW 4.2 km/h 6.4 km/h 99% 0 mm 0 W/m2
05:09 10.7 °C 10.6 °C 1020.2 hPa West 5.3 km/h 4.8 km/h 99% 0 mm 0 W/m2
05:14 10.8 °C 10.7 °C 1020.2 hPa WNW 5.5 km/h 4.8 km/h 99% 0 mm 0 W/m2
05:19 10.9 °C 10.7 °C 1020.2 hPa WNW 4.7 km/h 4.8 km/h 99% 0 mm 0 W/m2
05:24 10.9 °C 10.8 °C 1020.2 hPa WNW 5.5 km/h 6.4 km/h 99% 0 mm 0 W/m2
05:29 11 °C 10.8 °C 1020.2 hPa West 4.5 km/h 4.8 km/h 99% 0 mm 0 W/m2
05:34 10.9 °C 10.8 °C 1020.2 hPa WNW 3.7 km/h 4.8 km/h 99% 0 mm 0 W/m2
05:39 10.9 °C 10.8 °C 1020.2 hPa WNW 5.1 km/h 4.8 km/h 99% 0 mm 0 W/m2
05:44 11 °C 10.8 °C 1020.2 hPa WNW 5.6 km/h 6.4 km/h 99% 0 mm 0 W/m2
05:49 11.1 °C 10.9 °C 1020.2 hPa West 4.8 km/h 6.4 km/h 99% 0 mm 0 W/m2
05:54 11.1 °C 10.9 °C 1020.2 hPa West 4.2 km/h 6.4 km/h 99% 0 mm 0 W/m2
05:59 11 °C 10.8 °C 1020.2 hPa WNW 5.6 km/h 6.4 km/h 99% 0 mm 0 W/m2
06:04 11 °C 10.8 °C 1020.2 hPa NW 2.9 km/h 6.4 km/h 99% 0 mm 0 W/m2
06:09 10.9 °C 10.8 °C 1020.2 hPa West 4.3 km/h 4 km/h 99% 0 mm 0 W/m2
06:14 10.8 °C 10.7 °C 1020.2 hPa SW 4.5 km/h 4.8 km/h 99% 0 mm 0 W/m2
06:19 10.8 °C 10.6 °C 1020.2 hPa WSW 5.1 km/h 4.8 km/h 99% 0 mm 0 W/m2
06:24 10.7 °C 10.6 °C 1020.2 hPa WSW 6.6 km/h 6.4 km/h 99% 0 mm 1 W/m2
06:29 10.8 °C 10.6 °C 1020.2 hPa West 6.9 km/h 8 km/h 99% 0 mm 2 W/m2
06:34 10.9 °C 10.7 °C 1020.5 hPa NW 5.1 km/h 9.7 km/h 99% 0 mm 5 W/m2
06:39 11 °C 10.8 °C 1020.5 hPa WNW 6.3 km/h 8 km/h 99% 0 mm 8 W/m2
06:44 11 °C 10.8 °C 1020.5 hPa WSW 5.1 km/h 8 km/h 99% 0 mm 9 W/m2
06:49 10.9 °C 10.7 °C 1020.5 hPa WSW 3.9 km/h 4.8 km/h 99% 0 mm 13 W/m2
06:54 10.9 °C 10.7 °C 1020.5 hPa WNW 2.1 km/h 4.8 km/h 99% 0 mm 18 W/m2
06:59 11 °C 10.8 °C 1020.2 hPa North 2.3 km/h 3.2 km/h 99% 0 mm 28 W/m2
07:04 11.1 °C 10.9 °C 1020.5 hPa NNE 1.8 km/h 4.3 km/h 99% 0 mm 44 W/m2
07:09 11.2 °C 11.1 °C 1020.5 hPa NW 4.5 km/h 4.8 km/h 99% 0 mm 53 W/m2
07:14 11.2 °C 11.1 °C 1020.5 hPa WNW 5.1 km/h 4.8 km/h 99% 0 mm 64 W/m2
07:19 11.3 °C 11.2 °C 1020.2 hPa NW 3.9 km/h 4.8 km/h 99% 0 mm 78 W/m2
07:24 11.6 °C 11.4 °C 1020.5 hPa NW 4.3 km/h 4.8 km/h 99% 0 mm 81 W/m2
07:29 11.7 °C 11.6 °C 1020.2 hPa NW 4.3 km/h 6.4 km/h 99% 0 mm 77 W/m2
07:34 11.9 °C 11.8 °C 1020.2 hPa NW 1.9 km/h 4.8 km/h 99% 0 mm 66 W/m2
07:39 12.2 °C 12 °C 1019.9 hPa NW 0.8 km/h 3.2 km/h 99% 0 mm 71 W/m2
07:44 12.3 °C 12.1 °C 1020.2 hPa WNW 3.5 km/h 4 km/h 99% 0 mm 80 W/m2
07:49 12.3 °C 12.2 °C 1020.5 hPa WSW 5.1 km/h 4.8 km/h 99% 0 mm 89 W/m2
07:54 12.4 °C 12.2 °C 1020.5 hPa WSW 4.8 km/h 6.4 km/h 99% 0 mm 108 W/m2
07:59 12.6 °C 12.4 °C 1020.5 hPa WSW 4.7 km/h 4.8 km/h 99% 0 mm 117 W/m2
08:04 12.7 °C 12.6 °C 1020.5 hPa SW 5.5 km/h 6.4 km/h 99% 0 mm 131 W/m2
08:09 12.8 °C 12.7 °C 1020.5 hPa WSW 6.6 km/h 8 km/h 99% 0 mm 146 W/m2
08:14 13 °C 12.8 °C 1020.5 hPa West 6.8 km/h 8 km/h 99% 0 mm 140 W/m2
08:19 13.2 °C 13.1 °C 1020.5 hPa West 6.4 km/h 8 km/h 99% 0 mm 140 W/m2
08:24 13.5 °C 13.3 °C 1020.5 hPa WSW 5.6 km/h 8 km/h 99% 0 mm 125 W/m2
08:29 13.7 °C 13.6 °C 1020.5 hPa WSW 4.2 km/h 4.8 km/h 99% 0 mm 155 W/m2
08:34 14 °C 13.8 °C 1020.5 hPa SW 5.3 km/h 6.4 km/h 99% 0 mm 164 W/m2
08:39 14.2 °C 14 °C 1020.5 hPa South 5.1 km/h 6.4 km/h 99% 0 mm 175 W/m2
08:44 14.3 °C 14.2 °C 1020.5 hPa SE 4 km/h 6.4 km/h 99% 0 mm 162 W/m2
08:49 14.6 °C 14.4 °C 1020.5 hPa North 3.5 km/h 4.8 km/h 99% 0 mm 182 W/m2
08:54 14.8 °C 14.6 °C 1020.5 hPa WNW 3.4 km/h 3.2 km/h 99% 0 mm 212 W/m2
08:59 15.1 °C 14.9 °C 1020.2 hPa West 5.3 km/h 6.1 km/h 99% 0 mm 201 W/m2
09:04 15.3 °C 15.2 °C 1020.2 hPa West 6.4 km/h 9.7 km/h 99% 0 mm 131 W/m2
09:09 15.3 °C 15.2 °C 1020.2 hPa West 6.1 km/h 8 km/h 99% 0 mm 137 W/m2
09:14 15.4 °C 15.3 °C 1020.2 hPa WSW 6 km/h 8 km/h 99% 0 mm 147 W/m2
09:19 15.6 °C 15.4 °C 1020.5 hPa WSW 5.5 km/h 6.4 km/h 99% 0 mm 167 W/m2
09:24 15.8 °C 15.7 °C 1020.5 hPa WSW 5 km/h 6.4 km/h 99% 0 mm 192 W/m2
09:29 16.1 °C 15.9 °C 1020.5 hPa SW 2.1 km/h 4.8 km/h 99% 0 mm 284 W/m2
09:34 16.4 °C 16.3 °C 1020.5 hPa SSW 4.7 km/h 4 km/h 99% 0 mm 261 W/m2
09:39 16.7 °C 16.5 °C 1020.5 hPa South 5.5 km/h 6.4 km/h 98.8% 0 mm 253 W/m2
09:44 16.8 °C 16.5 °C 1020.5 hPa SSW 5.5 km/h 4.8 km/h 97.6% 0 mm 262 W/m2
09:49 17.1 °C 16.4 °C 1020.5 hPa SW 4.8 km/h 4.8 km/h 96% 0 mm 257 W/m2
09:54 17.3 °C 16.7 °C 1020.5 hPa SW 4.7 km/h 5 km/h 96% 0 mm 274 W/m2
09:59 17.6 °C 16.7 °C 1020.5 hPa SW 5 km/h 6.4 km/h 95.3% 0 mm 251 W/m2
10:04 17.7 °C 16.9 °C 1020.5 hPa SW 5 km/h 6.4 km/h 95% 0 mm 232 W/m2
10:09 17.8 °C 17.1 °C 1020.5 hPa WSW 5.5 km/h 4.8 km/h 95% 0 mm 247 W/m2
10:14 18.1 °C 17.3 °C 1020.5 hPa WSW 4.8 km/h 6.4 km/h 95.2% 0 mm 248 W/m2
10:19 18.5 °C 17.6 °C 1020.5 hPa WSW 3.5 km/h 6.4 km/h 94.5% 0 mm 241 W/m2
10:24 18.8 °C 17.7 °C 1020.5 hPa SW 3.7 km/h 3.2 km/h 93.7% 0 mm 226 W/m2
10:29 19 °C 17.8 °C 1020.5 hPa SW 4.2 km/h 4.8 km/h 93% 0 mm 222 W/m2
10:34 19.2 °C 18 °C 1020.5 hPa SW 5 km/h 4.8 km/h 93% 0 mm 220 W/m2
10:39 19.3 °C 17.8 °C 1020.5 hPa SW 4.7 km/h 6.4 km/h 90.9% 0 mm 211 W/m2
10:44 19.4 °C 17.8 °C 1020.5 hPa SW 4.7 km/h 4.8 km/h 90.5% 0 mm 208 W/m2
10:49 19.6 °C 17.8 °C 1020.9 hPa SW 5 km/h 4.8 km/h 89.6% 0 mm 251 W/m2
10:54 19.8 °C 17.9 °C 1020.5 hPa SW 3.4 km/h 4.8 km/h 88.8% 0 mm 276 W/m2
10:59 19.9 °C 17.8 °C 1020.5 hPa South 2.6 km/h 3.2 km/h 87.7% 0 mm 293 W/m2
11:04 20.2 °C 17.8 °C 1020.5 hPa NE 4.3 km/h 5 km/h 86.5% 0 mm 272 W/m2
11:09 20.3 °C 17.6 °C 1020.5 hPa NE 6 km/h 8 km/h 84.4% 0 mm 227 W/m2
11:14 20.6 °C 17.3 °C 1020.5 hPa ESE 8.2 km/h 8 km/h 81.4% 0 mm 207 W/m2
11:19 20.9 °C 17.4 °C 1020.5 hPa South 8.4 km/h 9.7 km/h 80.2% 0 mm 143 W/m2
11:24 21.1 °C 17.4 °C 1020.9 hPa SSW 5.6 km/h 9.7 km/h 79.7% 0 mm 141 W/m2
11:29 21.2 °C 17.5 °C 1020.9 hPa SW 9.5 km/h 11.1 km/h 79.5% 0 mm 123 W/m2
11:34 21.2 °C 17.2 °C 1020.9 hPa SSW 11.7 km/h 14.5 km/h 78.1% 0 mm 100 W/m2
11:39 21.2 °C 17.3 °C 1020.9 hPa SSW 9 km/h 14.5 km/h 78.7% 0 mm 73 W/m2
11:44 21 °C 17.2 °C 1021.2 hPa SSW 9 km/h 11.3 km/h 79% 0 mm 51 W/m2
11:49 20.8 °C 17.3 °C 1021.2 hPa SSW 7.2 km/h 12.9 km/h 79.9% 0 mm 50 W/m2
11:54 20.7 °C 17.2 °C 1021.2 hPa SSW 9.2 km/h 9.7 km/h 80.5% 0 mm 54 W/m2
11:59 20.6 °C 17.3 °C 1021.2 hPa SSW 10.5 km/h 11.3 km/h 82.1% 0 mm 53 W/m2
12:04 20.3 °C 17.5 °C 1021.2 hPa SW 11.7 km/h 11.3 km/h 83.8% 0 mm 58 W/m2
12:09 20.1 °C 17.4 °C 1021.2 hPa SW 10.8 km/h 12.9 km/h 84.7% 0 mm 64 W/m2
12:14 19.8 °C 17.3 °C 1020.9 hPa SW 8 km/h 11.3 km/h 85.6% 0 mm 67 W/m2
12:19 19.6 °C 17.6 °C 1020.9 hPa SSW 6.9 km/h 9.7 km/h 88.3% 0.25 mm 72 W/m2
12:24 19.4 °C 17.7 °C 1020.9 hPa SSW 4.7 km/h 8 km/h 89.7% 0.25 mm 96 W/m2
12:29 19.3 °C 17.7 °C 1020.5 hPa South 4.7 km/h 4.8 km/h 90.6% 0.25 mm 209 W/m2
12:34 19.3 °C 18.2 °C 1020.2 hPa SSW 6.3 km/h 5.8 km/h 93.3% 0.25 mm 223 W/m2
12:39 19.3 °C 18.3 °C 1020.2 hPa SW 10.1 km/h 9.7 km/h 94% 0.25 mm 226 W/m2
12:44 19.3 °C 18.4 °C 1019.9 hPa SW 11.1 km/h 11.3 km/h 94% 0.25 mm 214 W/m2
12:49 19.5 °C 18.3 °C 1019.9 hPa SW 13.5 km/h 11.3 km/h 92.5% 0.25 mm 209 W/m2
12:54 19.6 °C 18.3 °C 1019.9 hPa SW 13.2 km/h 16.1 km/h 91.9% 0.25 mm 192 W/m2
12:59 19.7 °C 18.5 °C 1019.9 hPa SW 10.8 km/h 14.5 km/h 92.8% 0.25 mm 167 W/m2
13:04 19.7 °C 18.3 °C 1019.9 hPa SW 8.7 km/h 11.3 km/h 91.8% 0.25 mm 111 W/m2
13:09 19.7 °C 18.2 °C 1019.9 hPa SW 8.5 km/h 9.7 km/h 91% 0.25 mm 61 W/m2
13:14 19.6 °C 18.1 °C 1019.9 hPa WSW 9.8 km/h 9.7 km/h 91% 0.25 mm 66 W/m2
13:19 19.5 °C 18 °C 1019.9 hPa WSW 8.7 km/h 11.3 km/h 90.8% 0.25 mm 66 W/m2
13:24 19.4 °C 17.9 °C 1019.9 hPa WSW 10.6 km/h 9.7 km/h 91% 0 mm 62 W/m2
13:25 19.4 °C 17.9 °C 1019.9 hPa WSW 4.8 km/h 11.3 km/h 91% 0 mm 46 W/m2
Knjazevac, Serbia
Compliments of Weather Underground - 2 mb